Time;durP1;ratioP1;P1;durP2;ratioP2;P2;SDS_P1;SDS_P2;PMS_P1;PMS_P2;Temp;Humidity;BMP_temperature;BMP_pressure;BME280_temperature;BME280_humidity;BME280_pressure;Samples;Min_cycle;Max_cycle;Signal;HPM_P1;HPM_P2
2023/12/26 00:02:17;;;;;;;87.57;51.95;;;10.20;78.10;;;;;;5096086;28;20431;-64
2023/12/26 00:04:43;;;;;;;92.75;53.65;;;10.30;78.10;;;;;;5096171;28;20491;-63
2023/12/26 00:07:09;;;;;;;81.68;48.25;;;10.20;78.10;;;;;;5096333;28;20023;-64
2023/12/26 00:09:39;;;;;;;91.50;50.17;;;10.20;78.10;;;;;;5096073;28;20050;-63
2023/12/26 00:12:06;;;;;;;81.68;49.17;;;10.20;78.20;;;;;;5096457;28;20411;-64
2023/12/26 00:14:32;;;;;;;75.15;45.65;;;10.20;78.20;;;;;;5096031;28;20107;-64
2023/12/26 00:16:58;;;;;;;73.65;43.50;;;10.20;78.20;;;;;;5096235;28;20417;-63
2023/12/26 00:19:24;;;;;;;83.85;49.65;;;10.20;78.20;;;;;;5095896;28;20036;-64
2023/12/26 00:21:50;;;;;;;78.60;46.90;;;10.20;78.20;;;;;;5096061;28;20016;-63
2023/12/26 00:24:16;;;;;;;84.57;47.67;;;10.20;78.20;;;;;;5095795;28;20444;-63
2023/12/26 00:26:42;;;;;;;76.80;46.33;;;10.20;78.20;;;;;;5095792;28;20043;-63
2023/12/26 00:29:08;;;;;;;77.63;47.47;;;10.20;78.10;;;;;;5095614;28;20459;-64
2023/12/26 00:31:34;;;;;;;76.05;44.90;;;10.10;78.10;;;;;;5095643;28;20016;-64
2023/12/26 00:34:01;;;;;;;83.72;47.00;;;10.20;78.20;;;;;;5095927;28;20106;-63
2023/12/26 00:36:27;;;;;;;81.53;45.88;;;10.20;78.20;;;;;;5095940;28;20023;-64
2023/12/26 00:38:53;;;;;;;76.30;44.65;;;10.20;78.20;;;;;;5095561;28;20047;-64
2023/12/26 00:41:19;;;;;;;81.22;48.80;;;10.20;78.30;;;;;;5095625;28;20035;-63
2023/12/26 00:43:45;;;;;;;71.13;42.17;;;10.10;78.20;;;;;;5095498;28;20023;-63
2023/12/26 00:46:11;;;;;;;77.68;45.97;;;10.10;78.10;;;;;;5095805;28;20031;-63
2023/12/26 00:48:37;;;;;;;67.82;43.03;;;10.10;78.30;;;;;;5095388;28;20099;-64
2023/12/26 00:51:05;;;;;;;77.88;46.17;;;10.10;78.20;;;;;;5095672;28;20048;-64
2023/12/26 00:53:31;;;;;;;88.00;49.67;;;10.10;78.30;;;;;;5073972;28;20033;-64
2023/12/26 00:55:57;;;;;;;87.47;49.97;;;10.10;78.30;;;;;;5075494;28;20025;-63
2023/12/26 00:58:24;;;;;;;79.72;46.03;;;10.10;78.30;;;;;;5075722;28;20032;-64
2023/12/26 01:00:50;;;;;;;84.53;48.83;;;10.10;78.30;;;;;;5075450;28;20033;-64
2023/12/26 01:03:16;;;;;;;85.20;49.10;;;10.10;78.30;;;;;;5075293;28;20025;-63
2023/12/26 01:05:42;;;;;;;79.28;47.22;;;10.10;78.30;;;;;;5075173;28;20081;-63
2023/12/26 01:08:11;;;;;;;78.35;46.70;;;10.00;78.40;;;;;;5075063;28;20107;-63
2023/12/26 01:10:37;;;;;;;70.57;42.88;;;10.10;78.40;;;;;;5075660;28;20031;-64
2023/12/26 01:13:03;;;;;;;87.43;48.58;;;10.10;78.40;;;;;;5075107;28;20096;-64
2023/12/26 01:15:30;;;;;;;83.22;47.35;;;10.10;78.40;;;;;;5075113;28;20017;-63
2023/12/26 01:17:56;;;;;;;83.53;48.42;;;10.10;78.50;;;;;;5074350;28;20103;-64
2023/12/26 01:20:21;;;;;;;85.95;48.25;;;10.10;78.40;;;;;;5075553;28;20151;-64
2023/12/26 01:22:47;;;;;;;81.70;46.83;;;10.10;78.40;;;;;;5074914;28;20040;-64
2023/12/26 01:25:14;;;;;;;75.03;45.03;;;10.10;78.40;;;;;;5075180;28;20035;-64
2023/12/26 01:27:40;;;;;;;84.20;48.33;;;10.10;78.30;;;;;;5074826;28;20047;-64
2023/12/26 01:30:06;;;;;;;79.60;46.42;;;10.10;78.30;;;;;;5074945;28;20017;-64
2023/12/26 01:32:32;;;;;;;76.60;45.45;;;10.10;78.30;;;;;;5074760;28;20402;-64
2023/12/26 01:34:58;;;;;;;88.03;48.25;;;10.10;78.30;;;;;;5074855;28;20499;-63
2023/12/26 01:37:24;;;;;;;79.63;46.20;;;10.00;78.40;;;;;;5075431;28;20090;-63
2023/12/26 01:39:50;;;;;;;81.13;48.28;;;10.10;78.40;;;;;;5074757;28;20048;-64
2023/12/26 01:42:17;;;;;;;75.47;44.92;;;10.00;78.40;;;;;;5075063;28;20095;-63
2023/12/26 01:44:43;;;;;;;80.07;47.72;;;10.00;78.40;;;;;;5075055;28;20028;-63
2023/12/26 01:47:11;;;;;;;77.50;44.90;;;10.00;78.40;;;;;;5074712;28;20021;-63
2023/12/26 01:49:39;;;;;;;77.57;45.35;;;10.00;78.30;;;;;;5074803;28;20017;-63
2023/12/26 01:52:08;;;;;;;86.10;49.05;;;10.00;78.30;;;;;;5079248;28;20086;-64
2023/12/26 01:54:36;;;;;;;82.82;48.42;;;10.00;78.50;;;;;;5099240;28;20111;-64
2023/12/26 01:57:06;;;;;;;72.88;44.25;;;10.00;78.50;;;;;;5098542;28;20051;-64
2023/12/26 01:59:35;;;;;;;80.38;46.63;;;9.90;78.40;;;;;;5098836;28;20394;-63
2023/12/26 02:02:03;;;;;;;70.38;43.53;;;9.90;78.40;;;;;;5099024;28;20096;-64
2023/12/26 02:04:30;;;;;;;67.75;44.00;;;9.90;78.40;;;;;;5099028;28;20081;-64
2023/12/26 02:06:59;;;;;;;65.65;38.67;;;9.90;78.40;;;;;;5098437;28;20399;-63
2023/12/26 02:09:25;;;;;;;63.50;39.88;;;9.90;78.40;;;;;;5098573;28;20040;-63
2023/12/26 02:11:52;;;;;;;66.43;39.47;;;9.90;78.30;;;;;;5098263;28;20016;-63
2023/12/26 02:14:19;;;;;;;65.70;39.15;;;9.90;78.30;;;;;;5080446;28;20360;-63
2023/12/26 02:16:46;;;;;;;64.63;36.22;;;9.80;78.40;;;;;;5098196;28;20080;-64
2023/12/26 02:19:12;;;;;;;60.50;35.40;;;9.80;78.50;;;;;;5098680;28;20359;-64
2023/12/26 02:21:38;;;;;;;62.20;36.35;;;9.80;78.60;;;;;;5098029;28;20062;-64
2023/12/26 02:24:04;;;;;;;55.20;32.15;;;9.80;78.60;;;;;;5098082;28;20437;-64
2023/12/26 02:26:33;;;;;;;47.25;29.58;;;9.80;78.50;;;;;;5098074;28;20031;-63
2023/12/26 02:29:00;;;;;;;56.95;32.35;;;9.80;78.60;;;;;;5098188;28;20056;-63
2023/12/26 02:31:28;;;;;;;69.68;37.40;;;9.80;78.70;;;;;;5097945;28;20020;-64
2023/12/26 02:33:54;;;;;;;60.65;35.50;;;9.90;78.60;;;;;;5098358;28;20449;-64
2023/12/26 02:36:21;;;;;;;67.78;37.95;;;9.90;78.50;;;;;;5097840;28;20441;-64
2023/12/26 02:38:47;;;;;;;67.72;38.30;;;9.90;78.50;;;;;;5080734;28;20039;-64
2023/12/26 02:41:13;;;;;;;63.65;37.10;;;9.90;78.40;;;;;;5382353;22;20048;-64
2023/12/26 02:43:39;;;;;;;68.30;38.22;;;9.90;78.40;;;;;;5117184;28;20036;-64
2023/12/26 02:46:05;;;;;;;58.17;36.50;;;9.90;78.40;;;;;;5118247;28;20034;-64
2023/12/26 02:48:31;;;;;;;63.75;36.58;;;9.90;78.40;;;;;;5118294;28;20031;-64
2023/12/26 02:50:56;;;;;;;65.57;36.80;;;9.90;78.50;;;;;;5118261;28;20138;-64
2023/12/26 02:53:22;;;;;;;62.72;37.38;;;9.90;78.40;;;;;;5118238;28;20024;-63
2023/12/26 02:55:53;;;;;;;66.72;38.17;;;9.90;78.40;;;;;;5117934;28;20035;-64
2023/12/26 02:58:20;;;;;;;60.00;34.70;;;9.90;78.40;;;;;;5117396;28;20431;-64
2023/12/26 03:00:47;;;;;;;56.90;35.70;;;9.90;78.40;;;;;;5117700;28;20042;-64
2023/12/26 03:03:13;;;;;;;68.53;39.60;;;9.90;78.50;;;;;;5117820;28;20032;-64
2023/12/26 03:05:39;;;;;;;57.25;34.90;;;9.90;78.50;;;;;;5118032;28;20018;-64
2023/12/26 03:08:05;;;;;;;56.20;34.42;;;9.90;78.50;;;;;;5371069;22;20070;-64
2023/12/26 03:10:31;;;;;;;63.90;37.50;;;9.90;78.40;;;;;;5097824;28;20024;-64
2023/12/26 03:12:57;;;;;;;60.00;35.28;;;9.90;78.50;;;;;;5097420;28;20036;-64
2023/12/26 03:15:23;;;;;;;62.08;36.45;;;9.90;78.50;;;;;;5097146;28;20020;-64
2023/12/26 03:17:49;;;;;;;66.82;37.63;;;9.90;78.60;;;;;;5097040;28;20035;-64
2023/12/26 03:20:15;;;;;;;63.78;38.15;;;9.90;78.60;;;;;;5097064;28;20045;-64
2023/12/26 03:22:41;;;;;;;65.43;38.72;;;9.90;78.70;;;;;;5097014;28;20028;-64
2023/12/26 03:25:08;;;;;;;67.68;36.90;;;9.90;78.60;;;;;;5096929;28;20070;-64
2023/12/26 03:27:34;;;;;;;58.80;37.05;;;9.90;78.50;;;;;;5096976;28;20032;-64
2023/12/26 03:30:00;;;;;;;61.65;36.33;;;9.90;78.60;;;;;;5095882;28;20016;-63
2023/12/26 03:32:26;;;;;;;64.18;37.97;;;9.90;78.60;;;;;;5097304;28;20028;-64
2023/12/26 03:34:52;;;;;;;79.40;46.97;;;9.90;78.50;;;;;;5096762;28;20096;-64
2023/12/26 03:37:18;;;;;;;74.80;44.10;;;9.90;79.20;;;;;;5351321;22;20413;-63
2023/12/26 03:39:44;;;;;;;72.63;40.15;;;9.90;79.10;;;;;;5056613;28;20024;-63
2023/12/26 03:42:10;;;;;;;69.57;40.28;;;9.90;78.90;;;;;;5056880;28;20025;-63
2023/12/26 03:44:36;;;;;;;80.50;45.25;;;9.90;78.90;;;;;;5360566;22;20052;-63
2023/12/26 03:47:02;;;;;;;68.47;39.22;;;9.80;78.90;;;;;;5117431;28;20023;-63
2023/12/26 03:49:28;;;;;;;56.83;36.67;;;9.80;78.90;;;;;;5117342;28;20351;-63
2023/12/26 03:51:54;;;;;;;60.95;37.67;;;9.80;78.90;;;;;;5117366;28;20016;-63
2023/12/26 03:54:22;;;;;;;63.00;37.42;;;9.80;79.00;;;;;;5116722;28;20332;-63
2023/12/26 03:56:48;;;;;;;65.80;38.40;;;9.80;78.90;;;;;;5116684;28;20073;-63
2023/12/26 03:59:14;;;;;;;65.80;39.88;;;9.80;78.90;;;;;;5116930;28;20032;-63
2023/12/26 04:01:40;;;;;;;59.92;36.55;;;9.90;78.90;;;;;;5116566;28;20034;-63
2023/12/26 04:04:06;;;;;;;61.55;39.20;;;9.90;78.90;;;;;;5116514;28;20031;-63
2023/12/26 04:06:32;;;;;;;64.38;38.65;;;9.80;78.90;;;;;;5117126;28;20019;-63
2023/12/26 04:08:58;;;;;;;56.28;35.92;;;9.80;78.90;;;;;;5116926;28;20024;-63
2023/12/26 04:11:24;;;;;;;61.25;37.40;;;9.80;78.90;;;;;;5116967;28;20148;-63
2023/12/26 04:13:50;;;;;;;63.63;37.67;;;9.80;78.90;;;;;;5115743;28;20043;-63
2023/12/26 04:16:16;;;;;;;57.80;36.55;;;9.80;78.90;;;;;;5115501;28;20398;-63
2023/12/26 04:18:42;;;;;;;61.17;37.58;;;9.90;78.90;;;;;;5116593;28;20034;-63
2023/12/26 04:21:08;;;;;;;59.85;37.78;;;9.80;78.90;;;;;;5116281;28;20028;-63
2023/12/26 04:23:34;;;;;;;64.03;38.03;;;9.90;79.00;;;;;;5116711;28;20069;-63
2023/12/26 04:26:00;;;;;;;59.83;36.47;;;9.80;79.00;;;;;;5116460;28;20055;-64
2023/12/26 04:28:26;;;;;;;62.30;37.78;;;9.80;78.90;;;;;;5116101;28;20444;-63
2023/12/26 04:30:52;;;;;;;65.32;38.15;;;9.80;79.10;;;;;;5116690;28;20015;-63
2023/12/26 04:33:19;;;;;;;62.83;37.58;;;9.80;79.00;;;;;;5363796;22;20462;-64
2023/12/26 04:35:45;;;;;;;63.00;38.85;;;9.80;79.00;;;;;;5095638;28;20028;-65
2023/12/26 04:38:12;;;;;;;62.83;38.67;;;9.80;79.00;;;;;;5078313;28;20024;-65
2023/12/26 04:40:38;;;;;;;61.00;37.05;;;9.80;79.00;;;;;;5095559;28;20035;-65
2023/12/26 04:43:08;;;;;;;63.58;38.63;;;9.80;79.00;;;;;;5074381;28;20025;-65
2023/12/26 04:45:37;;;;;;;62.45;36.90;;;9.90;79.10;;;;;;5075627;28;20024;-65
2023/12/26 04:48:05;;;;;;;58.78;36.17;;;9.90;79.00;;;;;;5365339;22;20056;-64
2023/12/26 04:50:31;;;;;;;62.00;36.38;;;9.80;79.00;;;;;;5095604;28;20035;-64
2023/12/26 04:52:57;;;;;;;58.33;36.63;;;9.80;79.00;;;;;;5095542;28;20349;-64
2023/12/26 04:55:23;;;;;;;55.30;34.90;;;9.90;79.00;;;;;;5095998;28;20020;-64
2023/12/26 04:57:49;;;;;;;58.25;37.53;;;9.80;78.90;;;;;;5095428;28;20051;-64
2023/12/26 05:00:15;;;;;;;50.20;32.03;;;9.80;79.00;;;;;;5095427;28;20438;-64
2023/12/26 05:02:41;;;;;;;55.83;34.55;;;9.80;78.80;;;;;;5095963;28;20043;-64
2023/12/26 05:05:07;;;;;;;61.50;35.38;;;9.70;79.00;;;;;;5095357;28;20024;-64
2023/12/26 05:07:33;;;;;;;62.30;37.60;;;9.80;79.00;;;;;;5095261;28;20103;-64
2023/12/26 05:09:59;;;;;;;57.35;34.67;;;9.80;79.00;;;;;;5095861;28;20043;-64
2023/12/26 05:12:28;;;;;;;56.33;35.08;;;9.80;79.00;;;;;;5095528;28;20020;-64
2023/12/26 05:14:54;;;;;;;61.72;36.70;;;9.80;78.90;;;;;;5095244;28;20031;-64
2023/12/26 05:17:20;;;;;;;56.47;35.45;;;9.80;79.10;;;;;;5095345;28;20016;-64
2023/12/26 05:19:46;;;;;;;63.35;37.53;;;9.90;79.10;;;;;;5095516;28;20103;-64
2023/12/26 05:22:12;;;;;;;61.55;37.08;;;9.90;79.10;;;;;;5095769;28;20439;-64
2023/12/26 05:24:39;;;;;;;55.08;34.67;;;9.90;79.00;;;;;;5096634;28;20077;-64
2023/12/26 05:27:05;;;;;;;54.90;35.47;;;9.90;79.00;;;;;;5098323;28;20118;-64
2023/12/26 05:29:32;;;;;;;62.00;35.35;;;9.90;79.00;;;;;;5099368;28;20055;-64
2023/12/26 05:31:57;;;;;;;57.05;34.92;;;9.90;78.90;;;;;;5099740;28;20020;-64
2023/12/26 05:34:23;;;;;;;60.75;35.35;;;9.90;78.80;;;;;;5099352;28;20397;-64
2023/12/26 05:36:50;;;;;;;59.85;34.60;;;9.90;78.90;;;;;;5099017;28;20016;-64
2023/12/26 05:39:16;;;;;;;54.50;32.55;;;9.90;78.90;;;;;;5099538;28;20039;-64
2023/12/26 05:41:42;;;;;;;58.60;34.55;;;9.90;78.90;;;;;;5099194;28;20071;-64
2023/12/26 05:44:08;;;;;;;56.50;33.00;;;9.90;79.00;;;;;;5099155;28;20020;-64
2023/12/26 05:46:34;;;;;;;57.17;35.45;;;9.90;78.90;;;;;;5098764;28;20459;-64
2023/12/26 05:49:00;;;;;;;53.80;32.30;;;9.90;78.90;;;;;;5098593;28;20068;-64
2023/12/26 05:51:26;;;;;;;48.88;31.73;;;9.90;78.90;;;;;;5099074;28;20039;-64
2023/12/26 05:53:52;;;;;;;55.80;33.03;;;9.90;78.90;;;;;;5099005;28;20378;-64
2023/12/26 05:56:19;;;;;;;51.75;32.25;;;9.90;79.00;;;;;;5099243;28;20044;-64
2023/12/26 05:58:46;;;;;;;48.08;30.35;;;9.90;78.90;;;;;;5098585;28;20146;-64
2023/12/26 06:01:12;;;;;;;55.88;33.08;;;9.90;78.90;;;;;;5098607;28;20028;-64
2023/12/26 06:03:38;;;;;;;57.65;32.40;;;9.90;79.00;;;;;;5098814;28;20031;-64
2023/12/26 06:06:08;;;;;;;49.97;30.80;;;9.90;79.00;;;;;;5098787;28;20028;-64
2023/12/26 06:08:35;;;;;;;55.95;33.53;;;9.90;79.00;;;;;;5097495;28;20127;-64
2023/12/26 06:11:01;;;;;;;56.03;34.55;;;9.90;79.10;;;;;;5098660;28;20036;-64
2023/12/26 06:13:27;;;;;;;50.95;32.33;;;9.90;79.20;;;;;;5098325;28;20031;-64
2023/12/26 06:15:53;;;;;;;58.33;35.40;;;9.90;79.10;;;;;;5099120;28;20020;-64
2023/12/26 06:18:19;;;;;;;55.97;33.85;;;9.90;79.20;;;;;;5097193;28;20371;-64
2023/12/26 06:20:46;;;;;;;56.22;33.95;;;9.90;79.20;;;;;;5098192;28;20107;-64
2023/12/26 06:23:12;;;;;;;59.10;35.45;;;9.90;79.10;;;;;;5098205;28;20024;-64
2023/12/26 06:25:38;;;;;;;59.08;35.53;;;9.90;79.20;;;;;;5098154;28;20032;-64
2023/12/26 06:28:04;;;;;;;57.60;38.17;;;9.90;79.20;;;;;;5097975;28;20348;-64
2023/12/26 06:30:30;;;;;;;53.97;33.72;;;9.90;79.20;;;;;;5098047;28;20039;-64
2023/12/26 06:32:56;;;;;;;59.28;37.75;;;9.90;79.20;;;;;;5097989;28;20424;-64
2023/12/26 06:35:22;;;;;;;59.42;37.20;;;9.90;79.20;;;;;;5097910;28;20042;-64
2023/12/26 06:37:48;;;;;;;62.90;38.00;;;9.80;79.30;;;;;;5097229;28;20028;-64
2023/12/26 06:40:14;;;;;;;68.78;39.80;;;9.80;79.40;;;;;;5098344;28;20344;-64
2023/12/26 06:42:41;;;;;;;61.50;37.05;;;9.80;79.50;;;;;;5098344;28;20031;-64
2023/12/26 06:45:07;;;;;;;68.13;38.75;;;9.80;79.50;;;;;;5098047;28;20028;-64
2023/12/26 06:47:33;;;;;;;61.95;38.17;;;9.80;79.40;;;;;;5097340;28;20338;-64
2023/12/26 06:49:59;;;;;;;68.68;38.72;;;9.90;79.50;;;;;;5097889;28;20081;-64
2023/12/26 06:52:26;;;;;;;64.25;38.97;;;9.80;79.40;;;;;;5097547;28;20066;-64
2023/12/26 06:54:51;;;;;;;64.07;39.88;;;9.90;79.40;;;;;;5097841;28;20101;-64
2023/12/26 06:57:17;;;;;;;61.00;38.13;;;9.80;79.40;;;;;;5097461;28;20317;-64
2023/12/26 06:59:46;;;;;;;65.43;38.65;;;9.80;79.40;;;;;;5097757;28;20047;-64
2023/12/26 07:02:13;;;;;;;67.38;40.70;;;9.80;79.50;;;;;;5097457;28;20051;-64
2023/12/26 07:04:42;;;;;;;64.90;39.05;;;9.80;79.60;;;;;;5097627;28;20054;-64
2023/12/26 07:07:08;;;;;;;65.93;41.15;;;9.80;79.60;;;;;;5097527;28;20020;-64
2023/12/26 07:09:34;;;;;;;71.13;42.05;;;9.80;79.60;;;;;;5097728;28;20032;-64
2023/12/26 07:12:00;;;;;;;62.67;39.13;;;9.80;79.50;;;;;;5097230;28;20027;-64
2023/12/26 07:14:28;;;;;;;73.97;44.00;;;9.80;79.50;;;;;;5097726;28;20020;-64
2023/12/26 07:16:55;;;;;;;66.53;40.53;;;9.80;79.70;;;;;;5097046;28;20043;-65
2023/12/26 07:19:21;;;;;;;76.88;44.92;;;9.80;79.70;;;;;;5097578;28;20051;-64
2023/12/26 07:21:47;;;;;;;74.65;45.22;;;9.80;79.70;;;;;;5097231;28;20039;-64
2023/12/26 07:24:14;;;;;;;70.68;41.40;;;9.80;80.30;;;;;;5096977;28;20024;-64
2023/12/26 07:26:40;;;;;;;66.15;40.58;;;9.80;80.00;;;;;;5096866;28;20064;-64
2023/12/26 07:29:06;;;;;;;69.28;43.10;;;9.80;80.00;;;;;;5097107;28;20107;-64
2023/12/26 07:31:32;;;;;;;65.10;39.45;;;9.80;80.00;;;;;;5096780;28;20016;-64
2023/12/26 07:34:00;;;;;;;74.95;45.17;;;9.80;80.00;;;;;;5095835;28;20088;-64
2023/12/26 07:36:26;;;;;;;72.75;43.05;;;9.80;80.00;;;;;;5096753;28;20077;-64
2023/12/26 07:38:52;;;;;;;70.78;42.58;;;9.80;80.00;;;;;;5097163;28;20039;-64
2023/12/26 07:41:18;;;;;;;70.50;40.47;;;9.80;80.00;;;;;;5096643;28;20024;-64
2023/12/26 07:43:45;;;;;;;65.75;40.25;;;9.80;80.10;;;;;;5096573;28;20032;-64
2023/12/26 07:46:11;;;;;;;66.55;40.35;;;9.80;80.00;;;;;;5095567;28;20047;-64
2023/12/26 07:48:37;;;;;;;65.75;41.30;;;9.80;80.10;;;;;;5095184;28;20056;-64
2023/12/26 07:51:04;;;;;;;61.42;37.38;;;9.70;80.20;;;;;;5097024;28;20016;-64
2023/12/26 07:53:30;;;;;;;68.28;40.58;;;9.70;80.20;;;;;;5096391;28;20028;-64
2023/12/26 07:55:56;;;;;;;60.55;37.17;;;9.70;80.30;;;;;;5096317;28;20042;-64
2023/12/26 07:58:22;;;;;;;67.60;38.60;;;9.70;80.20;;;;;;5096386;28;20024;-64
2023/12/26 08:00:48;;;;;;;57.97;37.22;;;9.80;80.10;;;;;;5096265;28;20023;-64
2023/12/26 08:03:15;;;;;;;67.40;41.72;;;9.70;80.10;;;;;;5096260;28;20031;-64
2023/12/26 08:05:42;;;;;;;70.47;42.63;;;9.80;80.10;;;;;;5096169;28;20024;-64
2023/12/26 08:08:10;;;;;;;68.18;40.92;;;9.80;80.30;;;;;;5095926;28;20028;-64
2023/12/26 08:10:36;;;;;;;74.28;44.50;;;9.70;80.20;;;;;;5096337;28;20138;-64
2023/12/26 08:13:03;;;;;;;78.18;43.75;;;9.70;80.40;;;;;;5096273;28;20039;-64
2023/12/26 08:15:30;;;;;;;71.40;42.95;;;9.70;80.30;;;;;;5096013;28;20020;-64
2023/12/26 08:17:56;;;;;;;78.07;45.55;;;9.70;80.20;;;;;;5095881;28;20047;-64
2023/12/26 08:20:23;;;;;;;80.50;46.28;;;9.70;80.20;;;;;;5095946;28;20024;-64
2023/12/26 08:22:49;;;;;;;79.32;45.03;;;9.70;80.20;;;;;;5094912;28;20452;-64
2023/12/26 08:25:15;;;;;;;77.25;46.72;;;9.80;80.40;;;;;;5096382;28;20060;-64
2023/12/26 08:27:42;;;;;;;80.30;51.28;;;9.80;80.40;;;;;;5095686;28;20024;-64
2023/12/26 08:30:08;;;;;;;77.03;46.92;;;9.80;80.40;;;;;;5096100;28;20105;-64
2023/12/26 08:32:34;;;;;;;80.63;45.88;;;9.80;80.40;;;;;;5096052;28;20149;-64
2023/12/26 08:35:02;;;;;;;82.90;50.15;;;9.80;80.40;;;;;;5097880;28;20421;-64
2023/12/26 08:37:28;;;;;;;73.55;45.40;;;9.80;80.40;;;;;;5095633;28;20016;-64
2023/12/26 08:39:56;;;;;;;84.05;47.97;;;9.80;80.40;;;;;;5095721;28;20028;-64
2023/12/26 08:42:22;;;;;;;75.07;44.80;;;9.90;80.30;;;;;;5095598;28;20030;-64
2023/12/26 08:44:48;;;;;;;76.30;45.03;;;9.90;80.40;;;;;;5096084;28;20099;-64
2023/12/26 08:47:35;;;;;;;73.20;45.63;;;9.90;80.50;;;;;;5389568;22;20019;-67
2023/12/26 08:50:01;;;;;;;71.22;43.08;;;9.90;80.20;;;;;;5014742;28;20061;-67
2023/12/26 08:52:28;;;;;;;70.40;43.28;;;9.90;80.40;;;;;;5015495;28;20435;-67
2023/12/26 08:54:55;;;;;;;72.43;42.75;;;9.90;80.40;;;;;;5015735;28;20101;-67
2023/12/26 08:57:22;;;;;;;75.07;44.92;;;9.90;80.50;;;;;;5015902;28;20359;-67
2023/12/26 08:59:48;;;;;;;70.28;43.72;;;9.90;80.50;;;;;;5015171;28;20033;-67
2023/12/26 09:02:14;;;;;;;70.75;46.20;;;9.90;80.40;;;;;;5015886;28;20025;-67
2023/12/26 09:04:40;;;;;;;80.03;47.53;;;9.90;80.40;;;;;;5015943;28;20030;-67
2023/12/26 09:07:07;;;;;;;77.60;48.65;;;9.90;80.50;;;;;;5015903;28;20053;-68
2023/12/26 09:09:36;;;;;;;78.80;47.70;;;10.00;80.40;;;;;;5015306;28;20109;-67
2023/12/26 09:12:04;;;;;;;79.30;46.13;;;10.00;80.40;;;;;;5015310;28;20022;-68
2023/12/26 09:14:29;;;;;;;72.78;47.33;;;10.00;80.50;;;;;;4997918;28;20022;-67
2023/12/26 09:16:56;;;;;;;81.78;49.67;;;10.00;80.60;;;;;;5015743;28;20390;-67
2023/12/26 09:19:21;;;;;;;77.65;48.95;;;10.00;80.50;;;;;;5015094;28;20026;-67
2023/12/26 09:21:47;;;;;;;80.15;47.97;;;10.00;80.50;;;;;;5015493;28;20041;-68
2023/12/26 09:24:13;;;;;;;81.55;50.58;;;10.00;80.50;;;;;;5015435;28;20022;-67
2023/12/26 09:26:39;;;;;;;88.53;52.35;;;10.10;80.60;;;;;;5015166;28;20034;-67
2023/12/26 09:29:05;;;;;;;78.70;48.65;;;10.10;80.60;;;;;;5361318;22;20421;-67
2023/12/26 09:31:31;;;;;;;80.50;49.00;;;10.10;80.50;;;;;;5115674;28;20038;-68
2023/12/26 09:33:57;;;;;;;80.05;49.15;;;10.10;80.50;;;;;;5115678;28;20042;-70
2023/12/26 09:36:23;;;;;;;77.57;47.80;;;10.20;80.50;;;;;;5115854;28;20024;-68
2023/12/26 09:38:49;;;;;;;77.03;49.33;;;10.20;80.50;;;;;;5115354;28;20030;-70
2023/12/26 09:41:22;;;;;;;83.60;54.13;;;10.20;80.60;;;;;;5115377;28;20059;-68
2023/12/26 09:43:56;;;;;;;79.65;50.20;;;10.20;80.70;;;;;;5115676;28;20019;-68
2023/12/26 09:46:23;;;;;;;84.15;49.80;;;10.20;80.50;;;;;;5115543;28;20420;-71
2023/12/26 09:48:49;;;;;;;76.97;48.58;;;10.20;80.50;;;;;;5115627;28;20028;-69
2023/12/26 09:51:22;;;;;;;77.78;49.40;;;10.20;80.60;;;;;;5115259;28;20109;-69
2023/12/26 09:53:58;;;;;;;71.65;46.67;;;10.30;80.60;;;;;;5115778;28;20027;-69
2023/12/26 09:56:25;;;;;;;82.25;51.42;;;10.30;80.60;;;;;;5115788;28;20442;-68
2023/12/26 09:58:56;;;;;;;86.22;51.25;;;10.30;80.70;;;;;;5115633;28;20030;-71
2023/12/26 10:01:24;;;;;;;74.50;48.35;;;10.30;80.70;;;;;;5115753;28;20028;-68
2023/12/26 10:03:52;;;;;;;76.47;47.67;;;10.30;80.50;;;;;;5115150;28;20027;-70
2023/12/26 10:06:18;;;;;;;82.85;50.13;;;10.40;80.60;;;;;;5115110;28;20072;-70
2023/12/26 10:08:46;;;;;;;81.10;49.70;;;10.40;80.60;;;;;;5115205;28;20060;-70
2023/12/26 10:11:16;;;;;;;74.25;46.03;;;10.40;80.50;;;;;;5115718;28;20020;-68
2023/12/26 10:13:50;;;;;;;81.30;49.85;;;10.40;80.50;;;;;;5118584;28;20031;-69
2023/12/26 10:16:17;;;;;;;79.38;47.05;;;10.40;80.50;;;;;;5118655;28;20024;-68
2023/12/26 10:18:43;;;;;;;73.50;44.45;;;10.40;80.60;;;;;;5118805;28;20027;-70
2023/12/26 10:21:10;;;;;;;77.78;47.53;;;10.50;80.60;;;;;;5117587;28;20034;-69
2023/12/26 10:23:36;;;;;;;73.20;43.15;;;10.50;80.60;;;;;;5118708;28;20440;-70
2023/12/26 10:26:02;;;;;;;79.97;49.00;;;10.50;80.50;;;;;;5118974;28;20032;-69
2023/12/26 10:28:29;;;;;;;66.32;42.85;;;10.60;80.50;;;;;;5118500;27;20058;-68
2023/12/26 10:30:56;;;;;;;74.10;44.67;;;10.60;80.50;;;;;;5118929;28;20428;-68
2023/12/26 10:33:26;;;;;;;69.30;42.08;;;10.60;80.40;;;;;;5118324;28;20026;-68
2023/12/26 10:36:03;;;;;;;76.88;47.42;;;10.60;80.40;;;;;;5118313;28;20031;-68
2023/12/26 10:38:31;;;;;;;66.70;40.65;;;10.60;80.30;;;;;;5118163;28;20024;-68
2023/12/26 10:41:00;;;;;;;73.68;41.80;;;10.60;80.40;;;;;;5118437;28;20189;-71
2023/12/26 10:43:29;;;;;;;69.82;42.17;;;10.60;80.20;;;;;;5118100;28;20016;-68
2023/12/26 10:45:57;;;;;;;61.63;40.33;;;10.60;80.20;;;;;;5118283;28;20062;-70
2023/12/26 10:48:32;;;;;;;66.45;40.55;;;10.60;80.30;;;;;;5118084;28;20029;-68
2023/12/26 10:51:02;;;;;;;60.53;37.70;;;10.70;80.20;;;;;;5118275;28;20023;-71
2023/12/26 10:53:43;;;;;;;62.72;39.03;;;10.70;80.30;;;;;;5118202;27;20313;-71
2023/12/26 10:56:12;;;;;;;71.38;44.25;;;10.70;80.20;;;;;;5116951;28;20050;-71
2023/12/26 10:58:39;;;;;;;70.75;42.35;;;10.70;80.50;;;;;;5118307;28;20115;-69
2023/12/26 13:53:27;;;;;;;70.15;39.20;;;11.50;79.00;;;;;;5119697;28;20023;-68
2023/12/26 13:56:30;;;;;;;73.40;41.95;;;11.50;79.00;;;;;;5118976;28;20428;-68
2023/12/26 13:59:33;;;;;;;80.13;43.60;;;11.50;79.00;;;;;;5118971;28;20020;-68
2023/12/26 14:02:36;;;;;;;68.03;39.28;;;11.50;79.00;;;;;;5117899;28;20032;-68
2023/12/26 14:05:39;;;;;;;78.53;44.38;;;11.60;78.90;;;;;;5119149;28;20455;-68
2023/12/26 14:08:43;;;;;;;84.03;47.72;;;11.60;79.00;;;;;;5117765;28;20050;-68
2023/12/26 14:11:45;;;;;;;69.32;39.78;;;11.50;78.90;;;;;;5118920;28;20027;-68
2023/12/26 14:14:48;;;;;;;67.60;38.80;;;11.50;78.90;;;;;;5118940;28;20102;-68
2023/12/26 14:17:51;;;;;;;80.38;44.20;;;11.50;78.90;;;;;;5077967;28;20113;-68
2023/12/26 14:20:54;;;;;;;72.35;39.83;;;11.50;78.80;;;;;;5078359;28;20398;-68
2023/12/26 14:23:58;;;;;;;72.40;41.45;;;11.50;78.90;;;;;;5077825;28;20036;-68
2023/12/26 14:27:02;;;;;;;64.13;39.22;;;11.40;78.90;;;;;;5077982;28;20028;-68
2023/12/26 14:30:06;;;;;;;74.97;40.08;;;11.40;78.90;;;;;;5077672;28;20090;-68
2023/12/26 14:33:09;;;;;;;63.70;36.80;;;11.40;78.90;;;;;;5077697;28;20024;-68
2023/12/26 14:36:12;;;;;;;71.65;39.58;;;11.40;78.90;;;;;;5077564;28;20059;-68
2023/12/26 14:39:15;;;;;;;71.00;39.70;;;11.40;78.90;;;;;;5077863;28;20077;-68
2023/12/26 14:42:18;;;;;;;77.60;41.55;;;11.40;78.80;;;;;;5077751;28;20036;-68
2023/12/26 14:45:21;;;;;;;85.38;45.75;;;11.40;78.90;;;;;;5077891;28;20024;-68
2023/12/26 14:48:23;;;;;;;74.47;41.00;;;11.40;78.90;;;;;;5077307;28;20043;-68
2023/12/26 14:51:26;;;;;;;67.15;40.50;;;11.30;78.90;;;;;;5077546;28;20032;-68
2023/12/26 14:54:29;;;;;;;67.07;40.20;;;11.30;79.00;;;;;;5077297;28;20434;-68
2023/12/26 14:57:33;;;;;;;70.68;39.95;;;11.30;79.00;;;;;;5076030;28;20038;-68
2023/12/26 15:00:35;;;;;;;67.65;39.25;;;11.30;79.10;;;;;;5077748;28;20429;-68
2023/12/26 15:03:02;;;;;;;72.97;42.53;;;11.30;79.10;;;;;;5077160;28;20100;-68
2023/12/26 15:05:33;;;;;;;76.10;41.80;;;11.30;79.10;;;;;;5073258;28;20086;-68
2023/12/26 15:08:01;;;;;;;75.40;43.42;;;11.30;79.00;;;;;;5077034;28;20036;-68
2023/12/26 15:10:27;;;;;;;72.50;44.47;;;11.30;79.00;;;;;;5076967;28;20163;-68
2023/12/26 15:12:53;;;;;;;79.50;46.42;;;11.30;79.00;;;;;;5075873;28;20024;-68
2023/12/26 15:15:19;;;;;;;79.90;45.22;;;11.20;79.00;;;;;;5084279;28;20367;-68
2023/12/26 15:17:45;;;;;;;70.63;42.60;;;11.20;78.90;;;;;;5118073;28;20065;-68
2023/12/26 15:20:11;;;;;;;74.72;44.30;;;11.20;78.90;;;;;;5117703;28;20038;-68
2023/12/26 15:22:37;;;;;;;84.57;48.33;;;11.20;79.00;;;;;;5117354;28;20019;-68
2023/12/26 15:25:03;;;;;;;81.68;46.70;;;11.10;79.10;;;;;;5118545;28;20473;-67
2023/12/26 15:27:30;;;;;;;78.93;44.80;;;11.10;79.10;;;;;;5119120;28;20026;-68
2023/12/26 15:29:56;;;;;;;71.90;41.90;;;11.10;79.00;;;;;;5118585;28;20497;-68
2023/12/26 15:32:22;;;;;;;71.45;40.50;;;11.00;79.10;;;;;;5117600;28;20042;-68
2023/12/26 15:34:48;;;;;;;76.63;42.95;;;11.00;79.00;;;;;;5117050;28;20501;-68
2023/12/26 15:37:14;;;;;;;74.35;41.88;;;10.90;79.10;;;;;;5116469;28;20072;-68